Language selection

Features

My Weather Profile Weather Topics  | 

Douglas Channel: Past 24 Hour Conditions

 

North Hecate Strait - 46183

10:00 AM PDT 02 June 2020Buoy position: 53.63N 131.1W
Disclaimer

This table is a summary of hourly weather conditions for the past 24 hours.
Please note that these observations might not always be representative of weather conditions over their associated marine area.

Date / Time
(PDT)
Wind(knots) Wave height(m) Wave period(s) Pressure(kPa) Air tempC) Water tempC)
02 June 2020
10:00 WSW 10 gust 12 1.5 7.0 101.5 10 10
9:00 SW 10 gust 12 1.4 8.0 101.5 10 10
8:00 SSW 8 gust 10 1.6 8.0 101.4 10 10
7:00 SSW 8 gust 10 1.5 7.0 101.4 10 10
6:00 SW 8 gust 12 1.6 8.0 101.3 10 10
5:00 SW 8 gust 10 1.7 8.0 101.3 10 10
4:00 SW 10 gust 12 1.7 8.0 101.3 10 10
3:00 SW 8 gust 10 1.7 9.0 101.2 10 10
2:00 SSW 6 gust 8 1.9 8.0 101.2 10 10
1:00 SSW 10 gust 12 2.2 8.0 101.1 10 10
0:00 S 16 gust 17 2.4 9.0 101.1 10 10
01 June 2020
23:00 SSE 19 gust 23 3.0 8.0 101.0 11 10
22:00 SSE 23 gust 27 3.3 8.0 101.0 11 10
21:00 SSE 25 gust 29 3.5 7.0 100.9 11 10
20:00 SSE 27 gust 35 3.1 7.0 101.0 10 10
19:00 SE 29 gust 35 3.3 7.0 101.0 10 10
18:00 SE 31 gust 39 3.1 7.0 101.1 10 10
17:00 SE 31 gust 39 2.6 7.0 101.2 10 11
16:00 SSE 25 gust 31 2.3 7.0 101.3 10 11
15:00 SSE 25 gust 31 2.1 6.0 101.4 10 11
14:00 SSE 25 gust 29 1.9 5.0 101.5 10 11
13:00 SSE 25 gust 29 1.7 6.0 101.5 10 11
12:00 SSE 22 gust 27 1.5 5.0 101.5 10 11
11:00 S 22 gust 25 1.3 4.0 101.6 10 11
10:00 SSE 22 gust 25 1.2 4.0 101.6 10 11

Zoom-in to make a selection

Map of Pacific - North Coast marine weather areas Middle Nomad - 46004 South Nomad - 46036 Dixon Entrance Central - 46145 South Moresby - 46147 Nanakwa Shoal - 46181 North Hecate Strait - 46183 North Nomad - 46184 South Hecate Strait - 46185 West Sea Otter - 46204 West Dixon Entrance - 46205 East Dellwood - 46207 West Moresby - 46208 Sartine Island Cape St.James Kindakun Rocks Langara Island Masset Municipal Airport Rose Spit Sandspit Airport Bella Bella Airport Bella Coola Airport Bonilla Island Cathedral Point Cumshewa Island Grey Islet Holland Rock Lucy Islands Lightstation Prince Rupert Airport
Legend:
buoy Buoy
land station Land Station

Pacific - North Coast Area

Another Region

What we are doing

Date modified: